地図

経路データ

SID SEASON NUMBER BASIN SUBBASIN NAME ISO_TIME NATURE LAT LON WMO_WIND WMO_PRES WMO_AGENCY TRACK_TYPE DIST2LAND LANDFALL IFLAG USA_AGENCY USA_ATCF_ID USA_LAT USA_LON USA_RECORD USA_STATUS USA_WIND USA_PRES USA_SSHS USA_R34_NE USA_R34_SE USA_R34_SW USA_R34_NW USA_R50_NE USA_R50_SE USA_R50_SW USA_R50_NW USA_R64_NE USA_R64_SE USA_R64_SW USA_R64_NW USA_POCI USA_ROCI USA_RMW USA_EYE TOKYO_LAT TOKYO_LON TOKYO_GRADE TOKYO_WIND TOKYO_PRES TOKYO_R50_DIR TOKYO_R50_LONG TOKYO_R50_SHORT TOKYO_R30_DIR TOKYO_R30_LONG TOKYO_R30_SHORT TOKYO_LAND CMA_LAT CMA_LON CMA_CAT CMA_WIND CMA_PRES HKO_LAT HKO_LON HKO_CAT HKO_WIND HKO_PRES NEWDELHI_LAT NEWDELHI_LON NEWDELHI_GRADE NEWDELHI_WIND NEWDELHI_PRES NEWDELHI_CI NEWDELHI_DP NEWDELHI_POCI REUNION_LAT REUNION_LON REUNION_TYPE REUNION_WIND REUNION_PRES REUNION_TNUM REUNION_CI REUNION_RMW REUNION_R34_NE REUNION_R34_SE REUNION_R34_SW REUNION_R34_NW REUNION_R50_NE REUNION_R50_SE REUNION_R50_SW REUNION_R50_NW REUNION_R64_NE REUNION_R64_SE REUNION_R64_SW REUNION_R64_NW BOM_LAT BOM_LON BOM_TYPE BOM_WIND BOM_PRES BOM_TNUM BOM_CI BOM_RMW BOM_R34_NE BOM_R34_SE BOM_R34_SW BOM_R34_NW BOM_R50_NE BOM_R50_SE BOM_R50_SW BOM_R50_NW BOM_R64_NE BOM_R64_SE BOM_R64_SW BOM_R64_NW BOM_ROCI BOM_POCI BOM_EYE BOM_POS_METHOD BOM_PRES_METHOD NADI_LAT NADI_LON NADI_CAT NADI_WIND NADI_PRES WELLINGTON_LAT WELLINGTON_LON WELLINGTON_WIND WELLINGTON_PRES DS824_LAT DS824_LON DS824_STAGE DS824_WIND DS824_PRES TD9636_LAT TD9636_LON TD9636_STAGE TD9636_WIND TD9636_PRES TD9635_LAT TD9635_LON TD9635_WIND TD9635_PRES TD9635_ROCI NEUMANN_LAT NEUMANN_LON NEUMANN_CLASS NEUMANN_WIND NEUMANN_PRES MLC_LAT MLC_LON MLC_CLASS MLC_WIND MLC_PRES USA_GUST BOM_GUST BOM_GUST_PER REUNION_GUST REUNION_GUST_PER USA_SEAHGT USA_SEARAD_NE USA_SEARAD_SE USA_SEARAD_SW USA_SEARAD_NW STORM_SPEED STORM_DIR
1970161N13243 1970 48 EP MM BLANCA 1970-06-10 00:00:00 TS 13.1000 -117.400 45 hurdat_epa main 1346 1343 O________OO___ hurdat_epa EP021970 13.1000 -117.400 TS 45 0 13.1000 -117.400 TC 45 13.1000 -117.400 2 4 316
1970161N13243 1970 48 EP MM BLANCA 1970-06-10 03:00:00 TS 13.2505 -117.550 main 1340 1337 P________PP___ EP021970 13.2475 -117.547 TS 45 0 13.2475 -117.547 TC 45 13.2626 -117.561 2 4 316
1970161N13243 1970 48 EP MM BLANCA 1970-06-10 06:00:00 TS 13.4040 -117.703 45 hurdat_epa main 1337 1332 O________OP___ hurdat_epa EP021970 13.4000 -117.700 TS 45 0 13.4000 -117.700 TC 45 13.4201 -117.717 2 4 316
1970161N13243 1970 48 EP MM BLANCA 1970-06-10 09:00:00 TS 13.5595 -117.859 main 1332 1330 P________PP___ EP021970 13.5575 -117.857 TS 47 0 13.5575 -117.857 TC 47 13.5676 -117.865 2 4 316
1970161N13243 1970 48 EP MM BLANCA 1970-06-10 12:00:00 TS 13.7000 -118.000 50 hurdat_epa main 1330 1328 O________OO___ hurdat_epa EP021970 13.7000 -118.000 TS 50 0 13.7000 -118.000 TC 50 13.7000 -118.000 2 4 316
1970161N13243 1970 48 EP MM BLANCA 1970-06-10 15:00:00 TS 13.8089 -118.110 main 1328 1326 P________PP___ EP021970 13.8075 -118.108 TS 50 0 13.8075 -118.108 TC 50 13.8143 -118.119 2 3 316
1970161N13243 1970 48 EP MM BLANCA 1970-06-10 18:00:00 TS 13.9030 -118.205 50 hurdat_epa main 1326 1325 O________OP___ hurdat_epa EP021970 13.9000 -118.200 TS 50 0 13.9000 -118.200 TC 50 13.9150 -118.223 2 3 315
1970161N13243 1970 48 EP MM BLANCA 1970-06-10 21:00:00 TS 14.0016 -118.303 main 1325 1323 P________PP___ EP021970 14.0000 -118.300 TS 50 0 14.0000 -118.300 TC 50 14.0081 -118.315 2 3 316
1970161N13243 1970 48 EP MM BLANCA 1970-06-11 00:00:00 TS 14.1000 -118.400 50 hurdat_epa main 1323 1322 O________OO___ hurdat_epa EP021970 14.1000 -118.400 TS 50 0 14.1000 -118.400 TC 50 14.1000 -118.400 2 3 316
1970161N13243 1970 48 EP MM BLANCA 1970-06-11 03:00:00 TS 14.2008 -118.502 main 1322 1320 P________PP___ EP021970 14.2000 -118.508 TS 47 0 14.2000 -118.508 TC 47 14.2040 -118.482 2 3 317
1970161N13243 1970 48 EP MM BLANCA 1970-06-11 06:00:00 TS 14.3015 -118.592 45 hurdat_epa main 1320 1312 O________OP___ hurdat_epa EP021970 14.3000 -118.600 TS 45 0 14.3000 -118.600 TC 45 14.3075 -118.558 2 2 324
1970161N13243 1970 48 EP MM BLANCA 1970-06-11 09:00:00 TS 14.4014 -118.652 main 1319 1311 P________PP___ EP021970 14.4000 -118.658 TS 45 0 14.4000 -118.658 TC 45 14.4072 -118.629 2 2 332
1970161N13243 1970 48 EP MM BLANCA 1970-06-11 12:00:00 TS 14.5000 -118.700 45 hurdat_epa main 1311 1303 O________OO___ hurdat_epa EP021970 14.5000 -118.700 TS 45 0 14.5000 -118.700 TC 45 14.5000 -118.700 2 2 335
1970161N13243 1970 48 EP MM BLANCA 1970-06-11 15:00:00 TS 14.5984 -118.747 main 1303 1302 P________PP___ EP021970 14.6075 -118.743 TS 45 0 14.6075 -118.743 TC 45 14.5618 -118.767 2 2 330
1970161N13243 1970 48 EP MM BLANCA 1970-06-11 18:00:00 TS 14.6840 -118.807 45 hurdat_epa main 1302 1302 O________OP___ hurdat_epa EP021970 14.7000 -118.800 TS 45 0 14.7000 -118.800 TC 45 14.6200 -118.835 2 2 313
1970161N13243 1970 48 EP MM BLANCA 1970-06-11 21:00:00 TS 14.7266 -118.890 main 1310 1302 P________PP___ EP021970 14.7350 -118.885 TS 40 0 14.7350 -118.885 TC 40 14.6931 -118.911 2 2 302
1970161N13243 1970 48 EP MM BLANCA 1970-06-12 00:00:00 TS 14.8000 -119.000 35 hurdat_epa main 1309 1301 O________OO___ hurdat_epa EP021970 14.8000 -119.000 TS 35 0 14.8000 -119.000 TC 35 14.8000 -119.000 6 3 315
1970161N13243 1970 48 EP MM BLANCA 1970-06-12 03:00:00 TS 14.9728 -119.141 main 1301 1301 P________PP___ EP021970 14.9775 -119.150 TS 32 -1 14.9775 -119.150 TC 32 14.9541 -119.107 6 5 325
1970161N13243 1970 48 EP MM BLANCA 1970-06-12 06:00:00 TS 15.1895 -119.286 30 hurdat_epa main 1301 1288 O________OP___ hurdat_epa EP021970 15.2000 -119.300 TD 30 -1 15.2000 -119.300 TC 30 15.1476 -119.230 6 5 329
1970161N13243 1970 48 EP MM BLANCA 1970-06-12 09:00:00 TS 15.3994 -119.402 main 1288 1276 P________PP___ EP021970 15.4075 -119.413 TD 30 -1 15.4075 -119.413 TC 30 15.3673 -119.362 6 5 333
1970161N13243 1970 48 EP MM BLANCA 1970-06-12 12:00:00 TS 15.6000 -119.500 30 hurdat_epa main 1276 O________OO___ hurdat_epa EP021970 15.6000 -119.500 TD 30 -1 15.6000 -119.500 TC 30 15.6000 -119.500 6 4 334

IBTrACS Databaseについて

本データベースは、米国NOAAが公開する1842年以降の世界の熱帯低気圧のベストトラックデータアーカイブInternational Best Track Archive for Climate Stewardship (IBTrACS)を、ウェブで閲覧しやすい形式に変換したものです。

最終更新日:2021-10-21